sensor_id;sensor_type;location;lat;lon;timestamp;P1;durP1;ratioP1;P2;durP2;ratioP2
49241;SDS011;35079;52.704;13.814;2023-08-17T00:01:57;5.75;;;2.80;;
49241;SDS011;35079;52.704;13.814;2023-08-17T00:04:22;4.63;;;2.55;;
49241;SDS011;35079;52.704;13.814;2023-08-17T00:06:48;9.02;;;3.15;;
49241;SDS011;35079;52.704;13.814;2023-08-17T00:09:16;8.02;;;2.90;;
49241;SDS011;35079;52.704;13.814;2023-08-17T00:11:42;6.07;;;2.35;;
49241;SDS011;35079;52.704;13.814;2023-08-17T00:14:07;4.70;;;2.50;;
49241;SDS011;35079;52.704;13.814;2023-08-17T00:16:33;9.25;;;3.42;;
49241;SDS011;35079;52.704;13.814;2023-08-17T00:18:58;6.13;;;2.70;;
49241;SDS011;35079;52.704;13.814;2023-08-17T00:21:24;7.93;;;3.33;;
49241;SDS011;35079;52.704;13.814;2023-08-17T00:23:50;6.85;;;2.90;;
49241;SDS011;35079;52.704;13.814;2023-08-17T00:26:15;8.25;;;2.85;;
49241;SDS011;35079;52.704;13.814;2023-08-17T00:28:41;4.57;;;2.38;;
49241;SDS011;35079;52.704;13.814;2023-08-17T00:31:07;7.57;;;2.65;;
49241;SDS011;35079;52.704;13.814;2023-08-17T00:33:32;4.82;;;2.25;;
49241;SDS011;35079;52.704;13.814;2023-08-17T00:35:58;4.88;;;2.40;;
49241;SDS011;35079;52.704;13.814;2023-08-17T00:38:24;5.60;;;2.72;;
49241;SDS011;35079;52.704;13.814;2023-08-17T00:40:49;5.38;;;2.70;;
49241;SDS011;35079;52.704;13.814;2023-08-17T00:43:15;7.90;;;2.42;;
49241;SDS011;35079;52.704;13.814;2023-08-17T00:45:41;5.63;;;2.35;;
49241;SDS011;35079;52.704;13.814;2023-08-17T00:48:09;7.78;;;2.90;;
49241;SDS011;35079;52.704;13.814;2023-08-17T00:50:36;9.48;;;3.20;;
49241;SDS011;35079;52.704;13.814;2023-08-17T00:53:03;7.07;;;2.92;;
49241;SDS011;35079;52.704;13.814;2023-08-17T00:55:29;7.13;;;3.22;;
49241;SDS011;35079;52.704;13.814;2023-08-17T00:57:55;7.28;;;3.03;;
49241;SDS011;35079;52.704;13.814;2023-08-17T01:00:23;3.70;;;2.88;;
49241;SDS011;35079;52.704;13.814;2023-08-17T01:02:51;3.92;;;2.75;;
49241;SDS011;35079;52.704;13.814;2023-08-17T01:05:18;6.40;;;2.78;;
49241;SDS011;35079;52.704;13.814;2023-08-17T01:07:44;4.13;;;2.50;;
49241;SDS011;35079;52.704;13.814;2023-08-17T01:10:10;9.02;;;2.88;;
49241;SDS011;35079;52.704;13.814;2023-08-17T01:12:38;6.85;;;3.00;;
49241;SDS011;35079;52.704;13.814;2023-08-17T01:15:16;7.75;;;3.03;;
49241;SDS011;35079;52.704;13.814;2023-08-17T01:20:20;5.20;;;2.92;;
49241;SDS011;35079;52.704;13.814;2023-08-17T01:22:48;5.18;;;2.90;;
49241;SDS011;35079;52.704;13.814;2023-08-17T01:25:16;6.75;;;3.03;;
49241;SDS011;35079;52.704;13.814;2023-08-17T01:27:45;7.40;;;2.70;;
49241;SDS011;35079;52.704;13.814;2023-08-17T01:30:11;5.40;;;2.30;;
49241;SDS011;35079;52.704;13.814;2023-08-17T01:35:30;3.40;;;2.33;;
49241;SDS011;35079;52.704;13.814;2023-08-17T01:38:02;6.57;;;2.70;;
49241;SDS011;35079;52.704;13.814;2023-08-17T01:40:32;7.53;;;2.97;;
49241;SDS011;35079;52.704;13.814;2023-08-17T01:42:59;6.60;;;2.33;;
49241;SDS011;35079;52.704;13.814;2023-08-17T01:45:26;6.18;;;3.03;;
49241;SDS011;35079;52.704;13.814;2023-08-17T01:47:52;6.43;;;2.70;;
49241;SDS011;35079;52.704;13.814;2023-08-17T01:50:18;2.88;;;2.00;;
49241;SDS011;35079;52.704;13.814;2023-08-17T01:52:43;2.80;;;1.88;;
49241;SDS011;35079;52.704;13.814;2023-08-17T01:55:09;6.35;;;2.38;;
49241;SDS011;35079;52.704;13.814;2023-08-17T01:57:35;5.63;;;2.00;;
49241;SDS011;35079;52.704;13.814;2023-08-17T02:00:02;5.10;;;2.20;;
49241;SDS011;35079;52.704;13.814;2023-08-17T02:02:29;4.35;;;2.00;;
49241;SDS011;35079;52.704;13.814;2023-08-17T02:04:55;5.18;;;2.53;;
49241;SDS011;35079;52.704;13.814;2023-08-17T02:07:21;6.00;;;2.22;;
49241;SDS011;35079;52.704;13.814;2023-08-17T02:09:47;3.20;;;1.70;;
49241;SDS011;35079;52.704;13.814;2023-08-17T02:12:12;6.10;;;2.20;;
49241;SDS011;35079;52.704;13.814;2023-08-17T02:14:38;5.30;;;2.00;;
49241;SDS011;35079;52.704;13.814;2023-08-17T02:17:04;5.82;;;1.88;;
49241;SDS011;35079;52.704;13.814;2023-08-17T02:19:30;6.70;;;2.00;;
49241;SDS011;35079;52.704;13.814;2023-08-17T02:21:58;5.63;;;1.92;;
49241;SDS011;35079;52.704;13.814;2023-08-17T02:24:24;6.93;;;2.20;;
49241;SDS011;35079;52.704;13.814;2023-08-17T02:26:50;3.50;;;2.22;;
49241;SDS011;35079;52.704;13.814;2023-08-17T02:29:15;3.33;;;1.77;;
49241;SDS011;35079;52.704;13.814;2023-08-17T02:31:41;5.25;;;2.10;;
49241;SDS011;35079;52.704;13.814;2023-08-17T02:34:07;4.60;;;2.13;;
49241;SDS011;35079;52.704;13.814;2023-08-17T02:36:33;4.70;;;2.05;;
49241;SDS011;35079;52.704;13.814;2023-08-17T02:38:58;4.50;;;1.83;;
49241;SDS011;35079;52.704;13.814;2023-08-17T02:41:24;4.82;;;2.40;;
49241;SDS011;35079;52.704;13.814;2023-08-17T02:43:50;5.00;;;1.80;;
49241;SDS011;35079;52.704;13.814;2023-08-17T02:46:15;4.65;;;1.90;;
49241;SDS011;35079;52.704;13.814;2023-08-17T02:48:41;3.45;;;1.98;;
49241;SDS011;35079;52.704;13.814;2023-08-17T02:51:06;3.95;;;1.70;;
49241;SDS011;35079;52.704;13.814;2023-08-17T02:53:32;4.28;;;1.73;;
49241;SDS011;35079;52.704;13.814;2023-08-17T02:55:58;4.63;;;1.77;;
49241;SDS011;35079;52.704;13.814;2023-08-17T02:58:24;9.38;;;2.15;;
49241;SDS011;35079;52.704;13.814;2023-08-17T03:00:52;5.30;;;2.10;;
49241;SDS011;35079;52.704;13.814;2023-08-17T03:03:18;7.15;;;2.17;;
49241;SDS011;35079;52.704;13.814;2023-08-17T03:05:44;4.97;;;2.00;;
49241;SDS011;35079;52.704;13.814;2023-08-17T03:08:10;3.30;;;1.92;;
49241;SDS011;35079;52.704;13.814;2023-08-17T03:10:36;4.00;;;1.80;;
49241;SDS011;35079;52.704;13.814;2023-08-17T03:13:02;5.22;;;2.00;;
49241;SDS011;35079;52.704;13.814;2023-08-17T03:15:28;3.55;;;1.77;;
49241;SDS011;35079;52.704;13.814;2023-08-17T03:17:53;2.92;;;1.60;;
49241;SDS011;35079;52.704;13.814;2023-08-17T03:20:19;4.47;;;2.05;;
49241;SDS011;35079;52.704;13.814;2023-08-17T03:22:45;2.50;;;1.98;;
49241;SDS011;35079;52.704;13.814;2023-08-17T03:25:11;3.15;;;1.80;;
49241;SDS011;35079;52.704;13.814;2023-08-17T03:27:37;3.95;;;1.83;;
49241;SDS011;35079;52.704;13.814;2023-08-17T03:30:03;2.75;;;1.90;;
49241;SDS011;35079;52.704;13.814;2023-08-17T03:32:30;4.90;;;2.15;;
49241;SDS011;35079;52.704;13.814;2023-08-17T03:34:55;3.65;;;1.98;;
49241;SDS011;35079;52.704;13.814;2023-08-17T03:37:21;3.63;;;1.83;;
49241;SDS011;35079;52.704;13.814;2023-08-17T03:39:47;3.53;;;2.10;;
49241;SDS011;35079;52.704;13.814;2023-08-17T03:42:12;4.47;;;2.00;;
49241;SDS011;35079;52.704;13.814;2023-08-17T03:44:38;2.80;;;1.77;;
49241;SDS011;35079;52.704;13.814;2023-08-17T03:47:04;4.85;;;2.33;;
49241;SDS011;35079;52.704;13.814;2023-08-17T03:49:30;4.13;;;1.83;;
49241;SDS011;35079;52.704;13.814;2023-08-17T03:51:55;5.70;;;2.20;;
49241;SDS011;35079;52.704;13.814;2023-08-17T03:54:21;5.95;;;1.90;;
49241;SDS011;35079;52.704;13.814;2023-08-17T03:56:47;6.85;;;2.17;;
49241;SDS011;35079;52.704;13.814;2023-08-17T03:59:13;4.75;;;2.00;;
49241;SDS011;35079;52.704;13.814;2023-08-17T04:01:39;4.35;;;2.20;;
49241;SDS011;35079;52.704;13.814;2023-08-17T04:04:05;6.63;;;2.88;;
49241;SDS011;35079;52.704;13.814;2023-08-17T04:06:30;6.85;;;2.13;;
49241;SDS011;35079;52.704;13.814;2023-08-17T04:08:56;7.10;;;2.05;;
49241;SDS011;35079;52.704;13.814;2023-08-17T04:11:22;6.13;;;2.20;;
49241;SDS011;35079;52.704;13.814;2023-08-17T04:13:47;5.57;;;2.28;;
49241;SDS011;35079;52.704;13.814;2023-08-17T04:16:13;2.67;;;1.63;;
49241;SDS011;35079;52.704;13.814;2023-08-17T04:18:39;2.90;;;1.80;;
49241;SDS011;35079;52.704;13.814;2023-08-17T04:21:04;3.53;;;2.10;;
49241;SDS011;35079;52.704;13.814;2023-08-17T04:23:30;3.67;;;1.85;;
49241;SDS011;35079;52.704;13.814;2023-08-17T04:25:55;4.28;;;1.73;;
49241;SDS011;35079;52.704;13.814;2023-08-17T04:28:21;8.02;;;2.28;;
49241;SDS011;35079;52.704;13.814;2023-08-17T04:30:47;5.80;;;1.90;;
49241;SDS011;35079;52.704;13.814;2023-08-17T04:33:12;3.67;;;1.73;;
49241;SDS011;35079;52.704;13.814;2023-08-17T04:35:38;3.55;;;1.70;;
49241;SDS011;35079;52.704;13.814;2023-08-17T04:38:04;2.63;;;1.75;;
49241;SDS011;35079;52.704;13.814;2023-08-17T04:40:30;2.83;;;1.75;;
49241;SDS011;35079;52.704;13.814;2023-08-17T04:42:57;3.58;;;1.60;;
49241;SDS011;35079;52.704;13.814;2023-08-17T04:45:23;2.95;;;1.80;;
49241;SDS011;35079;52.704;13.814;2023-08-17T04:47:48;4.53;;;1.75;;
49241;SDS011;35079;52.704;13.814;2023-08-17T04:50:14;4.30;;;1.70;;
49241;SDS011;35079;52.704;13.814;2023-08-17T04:52:42;2.22;;;1.50;;
49241;SDS011;35079;52.704;13.814;2023-08-17T04:55:11;2.15;;;1.75;;
49241;SDS011;35079;52.704;13.814;2023-08-17T04:57:38;3.83;;;1.80;;
49241;SDS011;35079;52.704;13.814;2023-08-17T05:00:05;6.72;;;1.80;;
49241;SDS011;35079;52.704;13.814;2023-08-17T05:02:34;3.80;;;1.80;;
49241;SDS011;35079;52.704;13.814;2023-08-17T05:05:02;5.10;;;2.05;;
49241;SDS011;35079;52.704;13.814;2023-08-17T05:07:31;2.47;;;1.60;;
49241;SDS011;35079;52.704;13.814;2023-08-17T05:09:57;5.75;;;1.85;;
49241;SDS011;35079;52.704;13.814;2023-08-17T05:12:23;6.05;;;1.77;;
49241;SDS011;35079;52.704;13.814;2023-08-17T05:14:49;3.00;;;1.65;;
49241;SDS011;35079;52.704;13.814;2023-08-17T05:17:14;5.28;;;1.90;;
49241;SDS011;35079;52.704;13.814;2023-08-17T05:19:40;3.88;;;1.55;;
49241;SDS011;35079;52.704;13.814;2023-08-17T05:22:10;3.13;;;1.65;;
49241;SDS011;35079;52.704;13.814;2023-08-17T05:24:37;5.82;;;2.20;;
49241;SDS011;35079;52.704;13.814;2023-08-17T05:27:03;3.92;;;1.77;;
49241;SDS011;35079;52.704;13.814;2023-08-17T05:29:29;3.25;;;1.92;;
49241;SDS011;35079;52.704;13.814;2023-08-17T05:31:57;6.68;;;1.98;;
49241;SDS011;35079;52.704;13.814;2023-08-17T05:34:23;4.85;;;1.90;;
49241;SDS011;35079;52.704;13.814;2023-08-17T05:36:48;2.40;;;1.55;;
49241;SDS011;35079;52.704;13.814;2023-08-17T05:39:14;5.60;;;1.65;;
49241;SDS011;35079;52.704;13.814;2023-08-17T05:41:40;5.80;;;2.00;;
49241;SDS011;35079;52.704;13.814;2023-08-17T05:44:06;3.03;;;1.70;;
49241;SDS011;35079;52.704;13.814;2023-08-17T05:46:34;5.18;;;1.90;;
49241;SDS011;35079;52.704;13.814;2023-08-17T05:49:01;4.43;;;1.70;;
49241;SDS011;35079;52.704;13.814;2023-08-17T05:51:28;8.35;;;1.75;;
49241;SDS011;35079;52.704;13.814;2023-08-17T05:53:53;3.67;;;1.75;;
49241;SDS011;35079;52.704;13.814;2023-08-17T05:56:40;2.55;;;1.48;;
49241;SDS011;35079;52.704;13.814;2023-08-17T05:59:12;4.80;;;2.15;;
49241;SDS011;35079;52.704;13.814;2023-08-17T06:01:39;3.85;;;1.77;;
49241;SDS011;35079;52.704;13.814;2023-08-17T06:04:17;2.30;;;1.60;;
49241;SDS011;35079;52.704;13.814;2023-08-17T06:06:43;3.88;;;2.15;;
49241;SDS011;35079;52.704;13.814;2023-08-17T06:09:08;2.42;;;1.63;;
49241;SDS011;35079;52.704;13.814;2023-08-17T06:11:34;1.80;;;1.40;;
49241;SDS011;35079;52.704;13.814;2023-08-17T06:14:00;3.95;;;2.00;;
49241;SDS011;35079;52.704;13.814;2023-08-17T06:16:26;2.75;;;1.80;;
49241;SDS011;35079;52.704;13.814;2023-08-17T06:19:04;2.08;;;1.50;;
49241;SDS011;35079;52.704;13.814;2023-08-17T06:21:29;2.25;;;1.70;;
49241;SDS011;35079;52.704;13.814;2023-08-17T06:23:55;3.47;;;1.63;;
49241;SDS011;35079;52.704;13.814;2023-08-17T06:26:21;3.00;;;1.60;;
49241;SDS011;35079;52.704;13.814;2023-08-17T06:28:50;3.15;;;1.70;;
49241;SDS011;35079;52.704;13.814;2023-08-17T06:31:16;4.32;;;1.85;;
49241;SDS011;35079;52.704;13.814;2023-08-17T06:33:42;4.13;;;1.77;;
49241;SDS011;35079;52.704;13.814;2023-08-17T06:36:07;3.20;;;1.73;;
49241;SDS011;35079;52.704;13.814;2023-08-17T06:38:33;2.78;;;1.90;;
49241;SDS011;35079;52.704;13.814;2023-08-17T06:40:59;3.35;;;1.85;;
49241;SDS011;35079;52.704;13.814;2023-08-17T06:43:25;3.88;;;1.90;;
49241;SDS011;35079;52.704;13.814;2023-08-17T06:45:50;3.38;;;1.95;;
49241;SDS011;35079;52.704;13.814;2023-08-17T06:48:16;2.80;;;1.65;;
49241;SDS011;35079;52.704;13.814;2023-08-17T06:50:42;4.78;;;1.80;;
49241;SDS011;35079;52.704;13.814;2023-08-17T06:53:07;2.83;;;1.88;;
49241;SDS011;35079;52.704;13.814;2023-08-17T06:55:33;4.75;;;1.80;;
49241;SDS011;35079;52.704;13.814;2023-08-17T06:57:59;6.32;;;2.03;;
49241;SDS011;35079;52.704;13.814;2023-08-17T07:00:24;2.72;;;2.22;;
49241;SDS011;35079;52.704;13.814;2023-08-17T07:02:51;3.72;;;2.42;;
49241;SDS011;35079;52.704;13.814;2023-08-17T07:05:17;5.60;;;2.63;;
49241;SDS011;35079;52.704;13.814;2023-08-17T07:07:43;6.80;;;2.67;;
49241;SDS011;35079;52.704;13.814;2023-08-17T07:10:10;5.20;;;2.20;;
49241;SDS011;35079;52.704;13.814;2023-08-17T07:12:39;5.43;;;2.22;;
49241;SDS011;35079;52.704;13.814;2023-08-17T07:15:07;3.40;;;1.85;;
49241;SDS011;35079;52.704;13.814;2023-08-17T07:17:33;8.48;;;2.38;;
49241;SDS011;35079;52.704;13.814;2023-08-17T07:19:59;3.28;;;2.05;;
49241;SDS011;35079;52.704;13.814;2023-08-17T07:22:25;5.97;;;2.30;;
49241;SDS011;35079;52.704;13.814;2023-08-17T07:24:51;3.47;;;1.90;;
49241;SDS011;35079;52.704;13.814;2023-08-17T07:27:16;2.53;;;2.00;;
49241;SDS011;35079;52.704;13.814;2023-08-17T07:29:42;3.35;;;2.20;;
49241;SDS011;35079;52.704;13.814;2023-08-17T07:32:07;5.43;;;2.42;;
49241;SDS011;35079;52.704;13.814;2023-08-17T07:34:35;3.58;;;2.17;;
49241;SDS011;35079;52.704;13.814;2023-08-17T07:37:03;3.65;;;2.22;;
49241;SDS011;35079;52.704;13.814;2023-08-17T07:39:29;5.82;;;2.55;;
49241;SDS011;35079;52.704;13.814;2023-08-17T07:41:55;7.43;;;2.58;;
49241;SDS011;35079;52.704;13.814;2023-08-17T07:44:21;6.68;;;2.40;;
49241;SDS011;35079;52.704;13.814;2023-08-17T07:46:46;3.85;;;2.60;;
49241;SDS011;35079;52.704;13.814;2023-08-17T07:49:12;5.22;;;3.08;;
49241;SDS011;35079;52.704;13.814;2023-08-17T07:51:38;4.22;;;2.78;;
49241;SDS011;35079;52.704;13.814;2023-08-17T07:54:03;4.30;;;2.42;;
49241;SDS011;35079;52.704;13.814;2023-08-17T07:56:29;4.47;;;2.10;;
49241;SDS011;35079;52.704;13.814;2023-08-17T07:58:55;3.40;;;2.22;;
49241;SDS011;35079;52.704;13.814;2023-08-17T08:01:20;4.57;;;2.92;;
49241;SDS011;35079;52.704;13.814;2023-08-17T08:03:46;4.47;;;2.50;;
49241;SDS011;35079;52.704;13.814;2023-08-17T08:06:12;3.75;;;2.78;;
49241;SDS011;35079;52.704;13.814;2023-08-17T08:08:38;4.30;;;2.65;;
49241;SDS011;35079;52.704;13.814;2023-08-17T08:11:04;5.78;;;2.50;;
49241;SDS011;35079;52.704;13.814;2023-08-17T08:13:30;4.68;;;2.60;;
49241;SDS011;35079;52.704;13.814;2023-08-17T08:15:57;3.83;;;2.70;;
49241;SDS011;35079;52.704;13.814;2023-08-17T08:18:23;7.95;;;3.03;;
49241;SDS011;35079;52.704;13.814;2023-08-17T08:20:49;6.13;;;2.75;;
49241;SDS011;35079;52.704;13.814;2023-08-17T08:23:15;4.32;;;2.80;;
49241;SDS011;35079;52.704;13.814;2023-08-17T08:25:40;3.55;;;2.78;;
49241;SDS011;35079;52.704;13.814;2023-08-17T08:28:06;4.60;;;3.03;;
49241;SDS011;35079;52.704;13.814;2023-08-17T08:30:31;6.60;;;3.00;;
49241;SDS011;35079;52.704;13.814;2023-08-17T08:32:57;4.53;;;2.78;;
49241;SDS011;35079;52.704;13.814;2023-08-17T08:35:24;3.53;;;2.78;;
49241;SDS011;35079;52.704;13.814;2023-08-17T08:37:50;6.90;;;3.33;;
49241;SDS011;35079;52.704;13.814;2023-08-17T08:40:16;4.53;;;2.72;;
49241;SDS011;35079;52.704;13.814;2023-08-17T08:42:42;5.45;;;3.05;;
49241;SDS011;35079;52.704;13.814;2023-08-17T08:45:09;3.78;;;2.80;;
49241;SDS011;35079;52.704;13.814;2023-08-17T08:47:35;7.88;;;3.05;;
49241;SDS011;35079;52.704;13.814;2023-08-17T08:50:02;4.47;;;2.58;;
49241;SDS011;35079;52.704;13.814;2023-08-17T08:52:33;3.38;;;3.00;;
49241;SDS011;35079;52.704;13.814;2023-08-17T08:57:40;6.07;;;2.38;;
49241;SDS011;35079;52.704;13.814;2023-08-17T09:00:07;5.88;;;2.53;;
49241;SDS011;35079;52.704;13.814;2023-08-17T09:02:34;3.85;;;2.30;;
49241;SDS011;35079;52.704;13.814;2023-08-17T09:05:00;5.65;;;2.80;;
49241;SDS011;35079;52.704;13.814;2023-08-17T09:07:28;6.28;;;2.40;;
49241;SDS011;35079;52.704;13.814;2023-08-17T09:09:55;4.70;;;2.35;;
49241;SDS011;35079;52.704;13.814;2023-08-17T09:12:21;3.92;;;2.40;;
49241;SDS011;35079;52.704;13.814;2023-08-17T09:14:47;4.85;;;2.67;;
49241;SDS011;35079;52.704;13.814;2023-08-17T09:17:13;6.50;;;2.65;;
49241;SDS011;35079;52.704;13.814;2023-08-17T09:19:38;4.55;;;2.50;;
49241;SDS011;35079;52.704;13.814;2023-08-17T09:22:04;3.38;;;2.30;;
49241;SDS011;35079;52.704;13.814;2023-08-17T09:24:33;5.10;;;2.53;;
49241;SDS011;35079;52.704;13.814;2023-08-17T09:27:02;3.88;;;2.50;;
49241;SDS011;35079;52.704;13.814;2023-08-17T09:29:28;3.20;;;2.35;;
49241;SDS011;35079;52.704;13.814;2023-08-17T09:32:05;5.57;;;2.30;;
49241;SDS011;35079;52.704;13.814;2023-08-17T09:34:35;3.83;;;2.47;;
49241;SDS011;35079;52.704;13.814;2023-08-17T09:37:03;4.55;;;2.28;;
49241;SDS011;35079;52.704;13.814;2023-08-17T09:39:30;2.72;;;1.98;;
49241;SDS011;35079;52.704;13.814;2023-08-17T09:41:56;3.95;;;2.42;;
49241;SDS011;35079;52.704;13.814;2023-08-17T09:44:21;2.35;;;2.15;;
49241;SDS011;35079;52.704;13.814;2023-08-17T09:46:47;5.15;;;2.35;;
49241;SDS011;35079;52.704;13.814;2023-08-17T09:49:13;3.72;;;2.47;;
49241;SDS011;35079;52.704;13.814;2023-08-17T09:51:42;3.50;;;2.60;;
49241;SDS011;35079;52.704;13.814;2023-08-17T09:54:14;4.60;;;2.28;;
49241;SDS011;35079;52.704;13.814;2023-08-17T09:56:48;3.22;;;2.40;;
49241;SDS011;35079;52.704;13.814;2023-08-17T09:59:16;4.57;;;2.70;;
49241;SDS011;35079;52.704;13.814;2023-08-17T10:01:42;3.90;;;2.47;;
49241;SDS011;35079;52.704;13.814;2023-08-17T10:04:08;3.00;;;2.60;;
49241;SDS011;35079;52.704;13.814;2023-08-17T10:06:35;6.07;;;3.00;;
49241;SDS011;35079;52.704;13.814;2023-08-17T10:09:04;3.60;;;2.80;;
49241;SDS011;35079;52.704;13.814;2023-08-17T10:11:31;3.58;;;3.05;;
49241;SDS011;35079;52.704;13.814;2023-08-17T10:14:05;4.38;;;2.83;;
49241;SDS011;35079;52.704;13.814;2023-08-17T10:16:45;3.80;;;2.92;;
49241;SDS011;35079;52.704;13.814;2023-08-17T10:19:33;3.17;;;2.88;;
49241;SDS011;35079;52.704;13.814;2023-08-17T10:22:20;5.35;;;2.72;;
49241;SDS011;35079;52.704;13.814;2023-08-17T10:25:08;5.57;;;3.00;;
49241;SDS011;35079;52.704;13.814;2023-08-17T10:27:36;3.92;;;2.78;;
49241;SDS011;35079;52.704;13.814;2023-08-17T10:30:02;5.15;;;2.90;;
49241;SDS011;35079;52.704;13.814;2023-08-17T10:32:29;4.65;;;3.00;;
49241;SDS011;35079;52.704;13.814;2023-08-17T10:34:55;3.35;;;2.72;;
49241;SDS011;35079;52.704;13.814;2023-08-17T10:37:22;3.30;;;2.92;;
49241;SDS011;35079;52.704;13.814;2023-08-17T10:39:49;5.72;;;3.10;;
49241;SDS011;35079;52.704;13.814;2023-08-17T10:42:15;6.25;;;3.60;;
49241;SDS011;35079;52.704;13.814;2023-08-17T10:45:00;6.40;;;3.58;;
49241;SDS011;35079;52.704;13.814;2023-08-17T10:47:31;6.68;;;3.90;;
49241;SDS011;35079;52.704;13.814;2023-08-17T10:52:30;6.35;;;3.97;;
49241;SDS011;35079;52.704;13.814;2023-08-17T10:55:07;4.38;;;3.60;;
49241;SDS011;35079;52.704;13.814;2023-08-17T10:57:38;5.78;;;4.40;;
49241;SDS011;35079;52.704;13.814;2023-08-17T11:02:57;7.80;;;4.75;;
49241;SDS011;35079;52.704;13.814;2023-08-17T11:08:38;10.10;;;5.60;;
49241;SDS011;35079;52.704;13.814;2023-08-17T11:11:10;6.15;;;4.75;;
49241;SDS011;35079;52.704;13.814;2023-08-17T11:13:41;6.82;;;5.38;;
49241;SDS011;35079;52.704;13.814;2023-08-17T11:16:09;8.68;;;5.15;;
49241;SDS011;35079;52.704;13.814;2023-08-17T11:18:36;5.30;;;4.80;;
49241;SDS011;35079;52.704;13.814;2023-08-17T11:21:02;6.88;;;5.10;;
49241;SDS011;35079;52.704;13.814;2023-08-17T11:23:29;7.68;;;4.75;;
49241;SDS011;35079;52.704;13.814;2023-08-17T11:25:56;5.82;;;4.47;;
49241;SDS011;35079;52.704;13.814;2023-08-17T11:28:22;5.07;;;3.80;;
49241;SDS011;35079;52.704;13.814;2023-08-17T11:30:58;4.97;;;3.90;;
49241;SDS011;35079;52.704;13.814;2023-08-17T11:33:27;4.93;;;3.38;;
49241;SDS011;35079;52.704;13.814;2023-08-17T11:35:54;3.25;;;2.95;;
49241;SDS011;35079;52.704;13.814;2023-08-17T11:38:20;4.60;;;3.03;;
49241;SDS011;35079;52.704;13.814;2023-08-17T11:40:46;4.10;;;3.10;;
49241;SDS011;35079;52.704;13.814;2023-08-17T11:43:13;4.72;;;3.38;;
49241;SDS011;35079;52.704;13.814;2023-08-17T11:45:39;3.35;;;2.92;;
49241;SDS011;35079;52.704;13.814;2023-08-17T11:48:05;5.43;;;3.40;;
49241;SDS011;35079;52.704;13.814;2023-08-17T11:50:30;3.95;;;3.00;;
49241;SDS011;35079;52.704;13.814;2023-08-17T11:52:59;4.35;;;2.95;;
49241;SDS011;35079;52.704;13.814;2023-08-17T11:55:25;3.70;;;3.30;;
49241;SDS011;35079;52.704;13.814;2023-08-17T11:57:51;5.20;;;3.33;;
49241;SDS011;35079;52.704;13.814;2023-08-17T12:00:18;3.90;;;3.50;;
49241;SDS011;35079;52.704;13.814;2023-08-17T12:02:49;4.38;;;3.53;;
49241;SDS011;35079;52.704;13.814;2023-08-17T12:05:21;4.85;;;3.63;;
49241;SDS011;35079;52.704;13.814;2023-08-17T12:07:49;5.10;;;3.50;;
49241;SDS011;35079;52.704;13.814;2023-08-17T12:10:15;5.20;;;3.00;;
49241;SDS011;35079;52.704;13.814;2023-08-17T12:12:42;4.35;;;3.00;;
49241;SDS011;35079;52.704;13.814;2023-08-17T12:15:09;4.47;;;3.30;;
49241;SDS011;35079;52.704;13.814;2023-08-17T12:17:37;4.95;;;2.90;;
49241;SDS011;35079;52.704;13.814;2023-08-17T12:20:14;3.03;;;2.77;;
49241;SDS011;35079;52.704;13.814;2023-08-17T12:22:43;3.17;;;2.88;;
49241;SDS011;35079;52.704;13.814;2023-08-17T12:25:09;3.95;;;3.13;;
49241;SDS011;35079;52.704;13.814;2023-08-17T12:27:35;4.07;;;2.80;;
49241;SDS011;35079;52.704;13.814;2023-08-17T12:30:01;4.63;;;3.13;;
49241;SDS011;35079;52.704;13.814;2023-08-17T12:32:27;5.78;;;3.28;;
49241;SDS011;35079;52.704;13.814;2023-08-17T12:34:53;6.00;;;3.30;;
49241;SDS011;35079;52.704;13.814;2023-08-17T12:37:19;4.28;;;3.30;;
49241;SDS011;35079;52.704;13.814;2023-08-17T12:39:48;6.55;;;3.65;;
49241;SDS011;35079;52.704;13.814;2023-08-17T12:42:14;3.17;;;2.88;;
49241;SDS011;35079;52.704;13.814;2023-08-17T12:44:40;4.40;;;3.10;;
49241;SDS011;35079;52.704;13.814;2023-08-17T12:47:06;5.38;;;3.58;;
49241;SDS011;35079;52.704;13.814;2023-08-17T12:49:32;3.47;;;3.17;;
49241;SDS011;35079;52.704;13.814;2023-08-17T12:51:57;5.10;;;3.42;;
49241;SDS011;35079;52.704;13.814;2023-08-17T12:54:23;5.22;;;3.53;;
49241;SDS011;35079;52.704;13.814;2023-08-17T12:56:49;4.78;;;3.67;;
49241;SDS011;35079;52.704;13.814;2023-08-17T12:59:14;5.22;;;3.50;;
49241;SDS011;35079;52.704;13.814;2023-08-17T13:01:40;3.92;;;3.15;;
49241;SDS011;35079;52.704;13.814;2023-08-17T13:04:06;4.03;;;3.20;;
49241;SDS011;35079;52.704;13.814;2023-08-17T13:06:32;5.13;;;3.22;;
49241;SDS011;35079;52.704;13.814;2023-08-17T13:08:58;4.82;;;3.05;;
49241;SDS011;35079;52.704;13.814;2023-08-17T13:11:23;4.60;;;3.42;;
49241;SDS011;35079;52.704;13.814;2023-08-17T13:13:49;3.78;;;3.05;;
49241;SDS011;35079;52.704;13.814;2023-08-17T13:16:14;6.28;;;3.47;;
49241;SDS011;35079;52.704;13.814;2023-08-17T13:18:40;3.80;;;3.13;;
49241;SDS011;35079;52.704;13.814;2023-08-17T13:21:06;3.58;;;3.20;;
49241;SDS011;35079;52.704;13.814;2023-08-17T13:23:31;3.78;;;3.40;;
49241;SDS011;35079;52.704;13.814;2023-08-17T13:25:57;4.15;;;3.20;;
49241;SDS011;35079;52.704;13.814;2023-08-17T13:28:23;4.22;;;3.08;;
49241;SDS011;35079;52.704;13.814;2023-08-17T13:30:48;4.10;;;3.70;;
49241;SDS011;35079;52.704;13.814;2023-08-17T13:33:14;5.15;;;3.22;;
49241;SDS011;35079;52.704;13.814;2023-08-17T13:35:41;3.53;;;3.00;;
49241;SDS011;35079;52.704;13.814;2023-08-17T13:38:07;5.32;;;3.45;;
49241;SDS011;35079;52.704;13.814;2023-08-17T13:40:32;4.03;;;3.30;;
49241;SDS011;35079;52.704;13.814;2023-08-17T13:43:01;4.10;;;3.15;;
49241;SDS011;35079;52.704;13.814;2023-08-17T13:45:28;3.70;;;3.38;;
49241;SDS011;35079;52.704;13.814;2023-08-17T13:47:53;5.15;;;3.40;;
49241;SDS011;35079;52.704;13.814;2023-08-17T13:50:19;3.97;;;3.38;;
49241;SDS011;35079;52.704;13.814;2023-08-17T13:52:45;5.00;;;3.60;;
49241;SDS011;35079;52.704;13.814;2023-08-17T13:55:11;5.15;;;3.47;;
49241;SDS011;35079;52.704;13.814;2023-08-17T13:57:37;3.95;;;3.60;;
49241;SDS011;35079;52.704;13.814;2023-08-17T14:00:03;4.15;;;3.50;;
49241;SDS011;35079;52.704;13.814;2023-08-17T14:02:29;4.32;;;3.53;;
49241;SDS011;35079;52.704;13.814;2023-08-17T14:04:55;5.05;;;3.25;;
49241;SDS011;35079;52.704;13.814;2023-08-17T14:07:20;3.65;;;3.35;;
49241;SDS011;35079;52.704;13.814;2023-08-17T14:09:46;4.57;;;3.63;;
49241;SDS011;35079;52.704;13.814;2023-08-17T14:12:12;4.18;;;3.20;;
49241;SDS011;35079;52.704;13.814;2023-08-17T14:14:37;4.70;;;2.97;;
49241;SDS011;35079;52.704;13.814;2023-08-17T14:17:03;4.82;;;3.70;;
49241;SDS011;35079;52.704;13.814;2023-08-17T14:19:28;6.10;;;3.55;;
49241;SDS011;35079;52.704;13.814;2023-08-17T14:21:54;5.45;;;3.40;;
49241;SDS011;35079;52.704;13.814;2023-08-17T14:24:20;9.07;;;3.35;;
49241;SDS011;35079;52.704;13.814;2023-08-17T14:26:45;3.72;;;3.30;;
49241;SDS011;35079;52.704;13.814;2023-08-17T14:29:11;5.43;;;3.13;;
49241;SDS011;35079;52.704;13.814;2023-08-17T14:31:37;5.88;;;3.30;;
49241;SDS011;35079;52.704;13.814;2023-08-17T14:34:02;4.03;;;3.30;;
49241;SDS011;35079;52.704;13.814;2023-08-17T14:36:28;4.20;;;3.50;;
49241;SDS011;35079;52.704;13.814;2023-08-17T14:38:53;5.63;;;3.42;;
49241;SDS011;35079;52.704;13.814;2023-08-17T14:41:19;3.85;;;3.40;;
49241;SDS011;35079;52.704;13.814;2023-08-17T14:43:44;8.93;;;3.22;;
49241;SDS011;35079;52.704;13.814;2023-08-17T14:46:10;3.63;;;3.22;;
49241;SDS011;35079;52.704;13.814;2023-08-17T14:48:36;4.03;;;3.63;;